createdAt,value
2019-03-09T00:00:55.160Z,0
2019-03-09T00:02:05.088Z,0
2019-03-09T00:03:15.025Z,0
2019-03-09T00:04:25.032Z,0
2019-03-09T00:05:34.975Z,0
2019-03-09T00:06:44.902Z,0
2019-03-09T00:07:54.836Z,0
2019-03-09T00:09:04.784Z,0
2019-03-09T00:10:14.860Z,0
2019-03-09T00:11:24.785Z,0
2019-03-09T00:12:34.715Z,0
2019-03-09T00:13:45.914Z,0
2019-03-09T00:14:55.910Z,0
2019-03-09T00:16:06.057Z,0
2019-03-09T00:17:16.006Z,0
2019-03-09T00:18:25.970Z,0
2019-03-09T00:19:35.905Z,0
2019-03-09T00:20:45.844Z,0
2019-03-09T00:21:55.871Z,0
2019-03-09T00:23:05.795Z,0
2019-03-09T00:24:16.024Z,0
2019-03-09T00:25:26.788Z,0
2019-03-09T00:26:37.531Z,0
2019-03-09T00:27:47.723Z,0
2019-03-09T00:28:57.813Z,0
2019-03-09T00:30:07.750Z,0
2019-03-09T00:31:17.698Z,0
2019-03-09T00:32:27.634Z,0
2019-03-09T00:33:37.425Z,0
2019-03-09T00:34:47.355Z,0
2019-03-09T00:35:57.293Z,0
2019-03-09T00:37:06.977Z,0
2019-03-09T00:38:16.902Z,0
2019-03-09T00:39:26.847Z,0
2019-03-09T00:40:36.789Z,0
2019-03-09T00:41:46.714Z,0
2019-03-09T00:42:56.698Z,0
2019-03-09T00:44:06.639Z,0
2019-03-09T00:45:16.639Z,0
2019-03-09T00:46:26.581Z,0
2019-03-09T00:47:36.544Z,0
2019-03-09T00:48:46.495Z,0
2019-03-09T00:49:56.436Z,0
2019-03-09T00:51:06.479Z,0
2019-03-09T00:52:16.410Z,0
2019-03-09T00:53:26.370Z,0
2019-03-09T00:54:36.336Z,0
2019-03-09T00:55:46.257Z,0
2019-03-09T00:56:56.227Z,0
2019-03-09T00:58:06.154Z,0
2019-03-09T00:59:16.098Z,0
2019-03-09T01:00:26.011Z,0
2019-03-09T01:01:35.922Z,0
2019-03-09T01:02:45.631Z,0
2019-03-09T01:03:55.550Z,0
2019-03-09T01:05:05.460Z,0
2019-03-09T01:06:15.379Z,0
2019-03-09T01:07:25.354Z,0
2019-03-09T01:08:35.264Z,0
2019-03-09T01:09:45.229Z,0
2019-03-09T01:10:55.137Z,0
2019-03-09T01:12:05.066Z,0
2019-03-09T01:13:14.975Z,0
2019-03-09T01:14:24.735Z,0
2019-03-09T01:15:34.651Z,0
2019-03-09T01:16:44.577Z,0
2019-03-09T01:17:54.495Z,0
2019-03-09T01:19:04.404Z,0
2019-03-09T01:20:14.384Z,0
2019-03-09T01:21:24.307Z,0
2019-03-09T01:22:34.222Z,0
2019-03-09T01:23:44.140Z,0
2019-03-09T01:24:54.063Z,0
2019-03-09T01:26:04.078Z,0
2019-03-09T01:27:14.018Z,0
2019-03-09T01:28:23.948Z,0
2019-03-09T01:29:33.865Z,0
2019-03-09T01:30:43.775Z,0
2019-03-09T01:31:53.782Z,0
2019-03-09T01:33:03.699Z,0
2019-03-09T01:34:13.628Z,0
2019-03-09T01:35:23.542Z,0
2019-03-09T01:36:33.206Z,0
2019-03-09T01:37:43.169Z,0
2019-03-09T01:38:53.080Z,0
2019-03-09T01:40:02.988Z,0
2019-03-09T01:41:12.896Z,0
2019-03-09T01:42:22.847Z,0
2019-03-09T01:43:32.813Z,0
2019-03-09T01:44:42.725Z,0
2019-03-09T01:45:52.632Z,0
2019-03-09T01:47:02.541Z,0
2019-03-09T01:48:12.462Z,0
2019-03-09T01:49:22.526Z,0
2019-03-09T01:50:32.442Z,0
2019-03-09T01:51:42.353Z,0
2019-03-09T01:52:52.029Z,0
2019-03-09T01:54:01.702Z,0
2019-03-09T01:55:11.714Z,0
2019-03-09T01:56:21.629Z,0
2019-03-09T01:57:31.541Z,0
2019-03-09T01:58:41.457Z,0
2019-03-09T01:59:51.374Z,0
2019-03-09T02:01:01.390Z,0
2019-03-09T02:02:11.298Z,0
2019-03-09T02:03:21.220Z,0
2019-03-09T02:04:31.133Z,0
2019-03-09T02:05:41.042Z,0
2019-03-09T02:06:51.000Z,0
2019-03-09T02:08:00.924Z,0
2019-03-09T02:09:10.841Z,0
2019-03-09T02:10:20.750Z,0
2019-03-09T02:11:30.666Z,0
2019-03-09T02:12:40.678Z,0
2019-03-09T02:13:50.632Z,0
2019-03-09T02:15:00.547Z,0
2019-03-09T02:16:10.516Z,0
2019-03-09T02:17:20.428Z,0
2019-03-09T02:18:30.386Z,0
2019-03-09T02:19:40.297Z,0
2019-03-09T02:20:50.280Z,0
2019-03-09T02:22:00.201Z,0
2019-03-09T02:23:10.128Z,0
2019-03-09T02:24:20.145Z,0
2019-03-09T02:25:30.079Z,0
2019-03-09T02:26:40.018Z,0
2019-03-09T02:27:49.928Z,0
2019-03-09T02:29:01.019Z,0
2019-03-09T02:30:11.193Z,0
2019-03-09T02:31:21.121Z,0
2019-03-09T02:32:31.067Z,0
2019-03-09T02:33:41.002Z,0
2019-03-09T02:34:50.932Z,0
2019-03-09T02:36:00.916Z,0
2019-03-09T02:37:10.905Z,0
2019-03-09T02:38:20.830Z,0
2019-03-09T02:39:30.816Z,0
2019-03-09T02:40:40.777Z,0
2019-03-09T02:41:50.794Z,0
2019-03-09T02:43:00.719Z,0
2019-03-09T02:44:10.671Z,0
2019-03-09T02:45:20.639Z,0
2019-03-09T02:46:30.635Z,0
2019-03-09T02:47:40.120Z,0
2019-03-09T02:48:50.095Z,0
2019-03-09T02:50:01.026Z,0
2019-03-09T02:51:10.951Z,0
2019-03-09T02:52:20.877Z,0
2019-03-09T02:53:30.905Z,0
2019-03-09T02:54:40.841Z,0
2019-03-09T02:55:50.866Z,0
2019-03-09T02:57:00.833Z,0
2019-03-09T02:58:10.785Z,0
2019-03-09T02:59:20.825Z,0
2019-03-09T03:00:30.755Z,0
2019-03-09T03:01:40.706Z,0
2019-03-09T03:02:50.398Z,0
2019-03-09T03:04:00.339Z,0
2019-03-09T03:05:10.350Z,0
2019-03-09T03:06:20.283Z,0
2019-03-09T03:07:30.237Z,0
2019-03-09T03:08:40.173Z,0
2019-03-09T03:09:50.095Z,0
2019-03-09T03:11:00.127Z,0
2019-03-09T03:12:10.084Z,0
2019-03-09T03:13:20.021Z,0
2019-03-09T03:14:29.968Z,0
2019-03-09T03:15:40.058Z,0
2019-03-09T03:16:50.079Z,0
2019-03-09T03:18:00.027Z,0
2019-03-09T03:19:09.731Z,0
2019-03-09T03:20:19.706Z,0
2019-03-09T03:21:29.650Z,0
2019-03-09T03:22:39.652Z,0
2019-03-09T03:23:49.568Z,0
2019-03-09T03:24:59.243Z,0
2019-03-09T03:26:09.172Z,0
2019-03-09T03:27:19.134Z,0
2019-03-09T03:28:29.161Z,0
2019-03-09T03:29:39.095Z,0
2019-03-09T03:30:49.055Z,0
2019-03-09T03:31:58.835Z,0
2019-03-09T03:33:08.696Z,0
2019-03-09T03:34:18.799Z,0
2019-03-09T03:35:28.843Z,0
2019-03-09T03:36:38.777Z,0
2019-03-09T03:37:48.489Z,0
2019-03-09T03:38:58.431Z,0
2019-03-09T03:40:08.455Z,0
2019-03-09T03:41:18.388Z,0
2019-03-09T03:42:28.346Z,0
2019-03-09T03:43:38.289Z,0
2019-03-09T03:44:48.281Z,0
2019-03-09T03:45:58.282Z,0
2019-03-09T03:47:08.223Z,0
2019-03-09T03:48:18.152Z,0
2019-03-09T03:49:28.089Z,0
2019-03-09T03:50:38.017Z,0
2019-03-09T03:51:47.948Z,0
2019-03-09T03:52:58.075Z,0
2019-03-09T03:54:07.760Z,0
2019-03-09T03:55:17.789Z,0
2019-03-09T03:56:27.727Z,0
2019-03-09T03:57:37.678Z,0
2019-03-09T03:58:47.368Z,0
2019-03-09T03:59:57.328Z,0
2019-03-09T04:01:07.246Z,0
2019-03-09T04:02:17.272Z,0
2019-03-09T04:03:27.295Z,0
2019-03-09T04:04:37.242Z,0
2019-03-09T04:05:47.204Z,0
2019-03-09T04:06:57.187Z,0
2019-03-09T04:08:06.953Z,0
2019-03-09T04:09:16.937Z,0
2019-03-09T04:10:26.919Z,0
2019-03-09T04:11:36.848Z,0
2019-03-09T04:12:46.786Z,0
2019-03-09T04:13:56.717Z,0
2019-03-09T04:15:06.747Z,0
2019-03-09T04:16:16.414Z,0
2019-03-09T04:17:26.412Z,0
2019-03-09T04:18:36.110Z,0
2019-03-09T04:19:46.167Z,0
2019-03-09T04:20:56.191Z,0
2019-03-09T04:22:06.134Z,0
2019-03-09T04:23:16.073Z,0
2019-03-09T04:24:25.746Z,0
2019-03-09T04:25:35.685Z,0
2019-03-09T04:26:45.664Z,0
2019-03-09T04:27:55.601Z,0
2019-03-09T04:29:05.519Z,0
2019-03-09T04:30:15.463Z,0
2019-03-09T04:31:25.396Z,0
2019-03-09T04:32:35.425Z,0
2019-03-09T04:33:45.348Z,0
2019-03-09T04:34:55.288Z,0
2019-03-09T04:36:05.214Z,0
2019-03-09T04:37:15.132Z,0
2019-03-09T04:38:25.155Z,0
2019-03-09T04:39:35.117Z,0
2019-03-09T04:40:45.029Z,0
2019-03-09T04:41:54.953Z,0
2019-03-09T04:43:04.865Z,0
2019-03-09T04:44:14.780Z,0
2019-03-09T04:45:24.688Z,0
2019-03-09T04:46:34.607Z,0
2019-03-09T04:47:44.514Z,0
2019-03-09T04:48:54.434Z,0
2019-03-09T04:50:04.496Z,0
2019-03-09T04:51:14.413Z,0
2019-03-09T04:52:24.331Z,0
2019-03-09T04:53:34.249Z,0
2019-03-09T04:54:44.162Z,0
2019-03-09T04:55:54.086Z,0
2019-03-09T04:57:03.746Z,0
2019-03-09T04:58:13.655Z,0
2019-03-09T04:59:23.575Z,0
2019-03-09T05:00:33.489Z,0
2019-03-09T05:01:43.502Z,0
2019-03-09T05:02:53.412Z,0
2019-03-09T05:04:03.344Z,0
2019-03-09T05:05:13.074Z,0
2019-03-09T05:06:22.999Z,0
2019-03-09T05:07:32.961Z,0
2019-03-09T05:08:42.884Z,0
2019-03-09T05:09:52.802Z,0
2019-03-09T05:11:02.718Z,0
2019-03-09T05:12:12.626Z,0
2019-03-09T05:13:22.644Z,4
2019-03-09T05:14:32.603Z,4
2019-03-09T05:15:42.545Z,0
2019-03-09T05:16:52.454Z,4
2019-03-09T05:18:02.389Z,4
2019-03-09T05:19:12.399Z,4
2019-03-09T05:20:22.311Z,4
2019-03-09T05:21:32.225Z,4
2019-03-09T05:22:42.141Z,4
2019-03-09T05:23:52.054Z,8
2019-03-09T05:25:02.066Z,8
2019-03-09T05:26:11.987Z,8
2019-03-09T05:27:21.899Z,12
2019-03-09T05:28:31.819Z,16
2019-03-09T05:29:41.751Z,16
2019-03-09T05:30:51.716Z,24
2019-03-09T05:32:01.625Z,24
2019-03-09T05:33:12.300Z,32
2019-03-09T05:34:22.224Z,36
2019-03-09T05:35:32.135Z,40
2019-03-09T05:36:42.145Z,48
2019-03-09T05:37:52.078Z,56
2019-03-09T05:39:01.994Z,64
2019-03-09T05:40:11.958Z,72
2019-03-09T05:41:21.884Z,84
2019-03-09T05:42:31.842Z,100
2019-03-09T05:43:41.766Z,108
2019-03-09T05:44:51.679Z,124
2019-03-09T05:46:01.593Z,144
2019-03-09T05:47:11.521Z,164
2019-03-09T05:48:21.544Z,180
2019-03-09T05:49:31.459Z,196
2019-03-09T05:50:41.379Z,212
2019-03-09T05:51:51.301Z,232
2019-03-09T05:53:01.219Z,252
2019-03-09T05:54:11.189Z,276
2019-03-09T05:55:21.116Z,304
2019-03-09T05:56:31.042Z,336
2019-03-09T05:57:41.002Z,364
2019-03-09T05:58:50.911Z,392
2019-03-09T06:00:00.931Z,416
2019-03-09T06:01:10.844Z,444
2019-03-09T06:02:20.761Z,464
2019-03-09T06:03:30.681Z,488
2019-03-09T06:04:40.590Z,516
2019-03-09T06:05:50.607Z,548
2019-03-09T06:07:00.561Z,584
2019-03-09T06:08:10.483Z,616
2019-03-09T06:09:20.394Z,652
2019-03-09T06:10:30.311Z,688
2019-03-09T06:11:40.533Z,724
2019-03-09T06:12:50.447Z,760
2019-03-09T06:14:00.358Z,796
2019-03-09T06:15:10.080Z,840
2019-03-09T06:16:20.001Z,880
2019-03-09T06:17:29.965Z,920
2019-03-09T06:18:39.889Z,964
2019-03-09T06:19:49.799Z,1012
2019-03-09T06:20:59.764Z,1060
2019-03-09T06:22:09.709Z,1116
2019-03-09T06:23:19.670Z,1168
2019-03-09T06:24:29.578Z,1228
2019-03-09T06:25:41.121Z,1284
2019-03-09T06:26:51.037Z,1332
2019-03-09T06:28:00.964Z,1372
2019-03-09T06:29:10.977Z,1408
2019-03-09T06:30:20.893Z,1428
2019-03-09T06:31:30.805Z,1476
2019-03-09T06:32:40.720Z,1512
2019-03-09T06:33:50.382Z,1560
2019-03-09T06:35:00.365Z,1600
2019-03-09T06:36:10.366Z,1660
2019-03-09T06:37:20.289Z,1720
2019-03-09T06:38:30.201Z,1796
2019-03-09T06:39:40.122Z,1860
2019-03-09T06:40:49.942Z,1932
2019-03-09T06:41:59.616Z,1976
2019-03-09T06:43:09.716Z,2012
2019-03-09T06:44:19.633Z,2068
2019-03-09T06:45:29.549Z,2152
2019-03-09T06:46:39.595Z,2236
2019-03-09T06:47:49.520Z,2300
2019-03-09T06:48:59.434Z,2344
2019-03-09T06:50:09.345Z,2400
2019-03-09T06:51:19.259Z,2472
2019-03-09T06:52:29.312Z,2556
2019-03-09T06:53:39.224Z,2636
2019-03-09T06:54:49.134Z,2704
2019-03-09T06:55:59.048Z,2756
2019-03-09T06:57:18.223Z,2796
2019-03-09T06:58:28.238Z,2832
2019-03-09T06:59:38.147Z,2860
2019-03-09T07:00:48.062Z,2868
2019-03-09T07:01:57.974Z,2880
2019-03-09T07:03:07.889Z,2880
2019-03-09T07:04:17.910Z,2892
2019-03-09T07:05:27.826Z,2912
2019-03-09T07:06:37.744Z,2956
2019-03-09T07:07:47.654Z,3024
2019-03-09T07:08:57.577Z,3116
2019-03-09T07:10:07.590Z,3204
2019-03-09T07:11:17.515Z,3292
2019-03-09T07:12:27.431Z,3384
2019-03-09T07:13:37.344Z,3496
2019-03-09T07:14:47.293Z,3616
2019-03-09T07:15:57.305Z,3728
2019-03-09T07:17:07.219Z,3812
2019-03-09T07:18:17.159Z,3880
2019-03-09T07:19:27.102Z,3924
2019-03-09T07:20:37.020Z,3928
2019-03-09T07:21:47.031Z,3904
2019-03-09T07:22:56.947Z,3884
2019-03-09T07:24:06.863Z,3876
2019-03-09T07:25:16.782Z,3856
2019-03-09T07:26:26.747Z,3832
2019-03-09T07:27:36.415Z,3812
2019-03-09T07:28:46.328Z,3768
2019-03-09T07:29:56.248Z,3736
2019-03-09T07:31:06.164Z,3708
2019-03-09T07:32:16.072Z,3704
2019-03-09T07:33:26.094Z,3724
2019-03-09T07:34:36.005Z,3772
2019-03-09T07:35:45.916Z,3836
2019-03-09T07:36:55.827Z,3936
2019-03-09T07:38:05.745Z,4052
2019-03-09T07:39:15.713Z,4176
2019-03-09T07:40:25.626Z,4304
2019-03-09T07:41:35.547Z,4408
2019-03-09T07:42:45.459Z,4484
2019-03-09T07:43:55.124Z,4556
2019-03-09T07:45:05.139Z,4636
2019-03-09T07:46:15.054Z,4748
2019-03-09T07:47:24.962Z,4868
2019-03-09T07:48:34.698Z,5000
2019-03-09T07:49:44.624Z,5164
2019-03-09T07:50:54.541Z,5360
2019-03-09T07:52:04.213Z,5524
2019-03-09T07:53:14.128Z,5580
2019-03-09T07:54:24.042Z,5564
2019-03-09T07:55:33.974Z,5564
2019-03-09T07:56:43.937Z,5616
2019-03-09T07:57:53.602Z,5700
2019-03-09T07:59:03.520Z,5780
2019-03-09T08:00:13.188Z,5860
2019-03-09T08:01:23.985Z,5968
2019-03-09T08:02:34.085Z,6176
2019-03-09T08:03:43.998Z,6492
2019-03-09T08:04:53.923Z,6784
2019-03-09T08:06:03.843Z,6836
2019-03-09T08:07:14.850Z,6624
2019-03-09T08:08:24.881Z,6324
2019-03-09T08:09:34.834Z,6164
2019-03-09T08:10:44.752Z,6192
2019-03-09T08:11:54.668Z,6228
2019-03-09T08:13:04.592Z,6092
2019-03-09T08:14:14.567Z,5832
2019-03-09T08:15:24.479Z,5560
2019-03-09T08:16:42.971Z,5376
2019-03-09T08:17:52.891Z,5384
2019-03-09T08:19:03.548Z,5476
2019-03-09T08:20:13.616Z,5528
2019-03-09T08:21:23.553Z,5500
2019-03-09T08:22:33.482Z,5452
2019-03-09T08:23:43.416Z,5388
2019-03-09T08:24:53.353Z,5300
2019-03-09T08:26:03.301Z,5228
2019-03-09T08:27:13.231Z,5192
2019-03-09T08:28:23.862Z,5168
2019-03-09T08:29:33.544Z,5112
2019-03-09T08:30:43.517Z,5008
2019-03-09T08:31:53.486Z,4828
2019-03-09T08:33:03.461Z,4532
2019-03-09T08:34:13.416Z,4168
2019-03-09T08:35:23.374Z,3840
2019-03-09T08:36:34.945Z,3664
2019-03-09T08:37:45.116Z,3640
2019-03-09T08:38:55.096Z,3652
2019-03-09T08:40:05.232Z,3636
2019-03-09T08:41:15.210Z,3632
2019-03-09T08:42:25.173Z,3660
2019-03-09T08:43:35.167Z,3732
2019-03-09T08:44:45.176Z,3868
2019-03-09T08:45:55.152Z,4112
2019-03-09T08:47:05.139Z,4456
2019-03-09T08:48:15.064Z,4884
2019-03-09T08:49:25.190Z,5332
2019-03-09T08:50:35.217Z,5760
2019-03-09T08:51:45.196Z,6100
2019-03-09T08:52:55.220Z,6264
2019-03-09T08:54:05.276Z,6320
2019-03-09T08:55:17.042Z,6368
2019-03-09T08:56:27.857Z,6476
2019-03-09T08:57:37.872Z,6644
2019-03-09T08:58:47.878Z,6856
2019-03-09T08:59:57.896Z,7072
2019-03-09T09:01:08.209Z,7272
2019-03-09T09:02:18.254Z,7420
2019-03-09T09:03:28.197Z,7504
2019-03-09T09:04:39.585Z,7608
2019-03-09T09:05:49.510Z,7768
2019-03-09T09:06:59.447Z,7868
2019-03-09T09:08:11.214Z,7896
2019-03-09T09:09:21.168Z,7896
2019-03-09T09:10:31.198Z,7968
2019-03-09T09:11:41.149Z,8104
2019-03-09T09:12:52.873Z,8280
2019-03-09T09:14:02.799Z,8412
2019-03-09T09:15:14.710Z,8504
2019-03-09T09:16:24.710Z,8600
2019-03-09T09:17:34.630Z,8720
2019-03-09T09:18:44.651Z,8868
2019-03-09T09:19:54.603Z,9036
2019-03-09T09:21:04.521Z,9168
2019-03-09T09:22:14.440Z,9268
2019-03-09T09:23:24.400Z,9364
2019-03-09T09:24:34.317Z,9488
2019-03-09T09:25:44.242Z,9644
2019-03-09T09:26:54.163Z,9804
2019-03-09T09:28:04.106Z,9900
2019-03-09T09:29:14.025Z,9940
2019-03-09T09:30:23.945Z,9952
2019-03-09T09:31:33.867Z,9960
2019-03-09T09:32:43.782Z,9992
2019-03-09T09:33:53.700Z,10048
2019-03-09T09:35:06.020Z,10116
2019-03-09T09:36:15.946Z,10236
2019-03-09T09:37:25.860Z,10444
2019-03-09T09:38:35.773Z,10712
2019-03-09T09:39:45.695Z,10904
2019-03-09T09:40:55.654Z,10916
2019-03-09T09:42:06.885Z,10840
2019-03-09T09:43:16.549Z,10788
2019-03-09T09:44:26.468Z,10768
2019-03-09T09:45:36.392Z,10752
2019-03-09T09:46:46.313Z,10736
2019-03-09T09:47:56.328Z,10792
2019-03-09T09:49:06.052Z,10904
2019-03-09T09:50:16.006Z,11052
2019-03-09T09:51:25.985Z,11172
2019-03-09T09:52:35.900Z,11292
2019-03-09T09:53:45.816Z,11356
2019-03-09T09:54:55.754Z,11404
2019-03-09T09:56:05.728Z,11460
2019-03-09T09:57:15.645Z,11512
2019-03-09T09:58:25.561Z,11536
2019-03-09T09:59:35.484Z,11564
2019-03-09T10:00:45.421Z,11640
2019-03-09T10:01:55.343Z,11764
2019-03-09T10:03:05.261Z,11956
2019-03-09T10:04:15.185Z,12152
2019-03-09T10:05:25.208Z,12212
2019-03-09T10:06:35.143Z,12240
2019-03-09T10:07:45.066Z,12244
2019-03-09T10:08:54.992Z,12144
2019-03-09T10:10:05.053Z,11960
2019-03-09T10:11:15.083Z,11688
2019-03-09T10:12:25.004Z,11308
2019-03-09T10:13:34.918Z,10916
2019-03-09T10:14:44.583Z,10600
2019-03-09T10:15:54.538Z,10488
2019-03-09T10:17:04.301Z,10488
2019-03-09T10:18:14.216Z,10500
2019-03-09T10:19:24.138Z,10500
2019-03-09T10:20:34.055Z,10528
2019-03-09T10:21:43.973Z,10520
2019-03-09T10:23:03.323Z,10476
2019-03-09T10:24:14.046Z,10352
2019-03-09T10:25:23.718Z,10244
2019-03-09T10:26:33.977Z,10200
2019-03-09T10:27:43.924Z,10232
2019-03-09T10:28:53.954Z,10280
2019-03-09T10:30:03.873Z,10256
2019-03-09T10:31:13.787Z,10128
2019-03-09T10:32:23.709Z,9900
2019-03-09T10:33:33.625Z,9608
2019-03-09T10:34:43.654Z,9324
2019-03-09T10:35:53.578Z,9104
2019-03-09T10:37:03.506Z,9000
2019-03-09T10:38:13.426Z,9004
2019-03-09T10:39:23.342Z,9108
2019-03-09T10:40:33.259Z,9304
2019-03-09T10:41:43.181Z,9544
2019-03-09T10:42:53.121Z,9736
2019-03-09T10:44:03.036Z,9840
2019-03-09T10:45:12.954Z,9816
2019-03-09T10:46:22.872Z,9656
2019-03-09T10:47:32.797Z,9492
2019-03-09T10:48:42.719Z,9376
2019-03-09T10:49:52.643Z,9400
2019-03-09T10:51:02.312Z,9536
2019-03-09T10:52:12.348Z,9696
2019-03-09T10:53:22.264Z,9816
2019-03-09T10:54:40.704Z,9836
2019-03-09T10:55:50.626Z,9816
2019-03-09T10:57:00.544Z,9816
2019-03-09T10:58:10.578Z,9900
2019-03-09T10:59:20.499Z,9980
2019-03-09T11:00:30.421Z,10036
2019-03-09T11:01:40.376Z,10104
2019-03-09T11:02:50.292Z,10252
2019-03-09T11:04:00.208Z,10628
2019-03-09T11:05:10.195Z,11136
2019-03-09T11:06:20.112Z,11512
2019-03-09T11:07:30.058Z,11752
2019-03-09T11:08:39.988Z,11740
2019-03-09T11:09:51.495Z,11908
2019-03-09T11:11:01.158Z,11980
2019-03-09T11:12:11.091Z,11708
2019-03-09T11:13:21.011Z,11044
2019-03-09T11:14:30.925Z,10196
2019-03-09T11:15:42.677Z,9356
2019-03-09T11:16:52.643Z,8724
2019-03-09T11:18:02.580Z,8348
2019-03-09T11:19:12.500Z,8100
2019-03-09T11:20:22.527Z,7940
2019-03-09T11:21:32.443Z,7824
2019-03-09T11:22:42.374Z,7772
2019-03-09T11:23:52.798Z,7664
2019-03-09T11:25:10.507Z,7496
2019-03-09T11:26:20.428Z,7408
2019-03-09T11:27:30.448Z,7496
2019-03-09T11:28:40.365Z,7732
2019-03-09T11:29:50.284Z,8036
2019-03-09T11:31:00.205Z,8288
2019-03-09T11:32:10.144Z,8444
2019-03-09T11:33:20.060Z,8548
2019-03-09T11:34:29.978Z,8568
2019-03-09T11:35:40.155Z,8456
2019-03-09T11:36:50.086Z,8304
2019-03-09T11:38:00.013Z,8188
2019-03-09T11:39:09.965Z,8132
2019-03-09T11:40:19.875Z,8092
2019-03-09T11:41:29.799Z,8048
2019-03-09T11:42:39.711Z,8052
2019-03-09T11:43:49.630Z,8124
2019-03-09T11:44:59.542Z,8228
2019-03-09T11:46:09.462Z,8300
2019-03-09T11:47:19.382Z,8364
2019-03-09T11:48:29.324Z,8384
2019-03-09T11:49:38.990Z,8408
2019-03-09T11:50:49.007Z,8468
2019-03-09T11:51:58.669Z,8576
2019-03-09T11:53:08.583Z,8796
2019-03-09T11:54:18.502Z,9132
2019-03-09T11:55:28.413Z,9528
2019-03-09T11:56:38.435Z,9924
2019-03-09T11:57:48.358Z,10320
2019-03-09T11:58:58.276Z,10756
2019-03-09T12:00:08.208Z,11232
2019-03-09T12:01:18.170Z,11820
2019-03-09T12:02:38.238Z,12460
2019-03-09T12:03:49.857Z,13092
2019-03-09T12:04:59.772Z,13544
2019-03-09T12:06:09.689Z,14044
2019-03-09T12:07:19.608Z,14420
2019-03-09T12:08:29.528Z,14552
2019-03-09T12:09:39.439Z,14444
2019-03-09T12:10:49.358Z,14340
2019-03-09T12:11:59.277Z,14336
2019-03-09T12:13:09.295Z,14380
2019-03-09T12:14:19.215Z,14444
2019-03-09T12:15:29.133Z,14436
2019-03-09T12:16:39.064Z,14384
2019-03-09T12:17:50.605Z,14224
2019-03-09T12:19:00.698Z,13964
2019-03-09T12:20:10.621Z,13580
2019-03-09T12:21:20.561Z,13172
2019-03-09T12:22:30.486Z,12832
2019-03-09T12:23:40.416Z,12688
2019-03-09T12:24:50.341Z,12868
2019-03-09T12:26:00.273Z,13308
2019-03-09T12:27:10.195Z,13784
2019-03-09T12:28:20.111Z,14024
2019-03-09T12:29:30.039Z,13948
2019-03-09T12:30:40.063Z,13712
2019-03-09T12:31:49.982Z,13316
2019-03-09T12:32:59.657Z,12768
2019-03-09T12:34:09.578Z,12204
2019-03-09T12:35:19.499Z,11792
2019-03-09T12:36:29.519Z,11588
2019-03-09T12:37:39.437Z,11532
2019-03-09T12:38:49.496Z,11596
2019-03-09T12:39:59.489Z,11804
2019-03-09T12:41:09.183Z,12072
2019-03-09T12:42:19.134Z,12272
2019-03-09T12:43:29.062Z,12384
2019-03-09T12:44:38.994Z,12396
2019-03-09T12:45:48.916Z,12408
2019-03-09T12:46:58.841Z,12356
2019-03-09T12:48:08.768Z,12320
2019-03-09T12:49:18.711Z,12320
2019-03-09T12:50:28.653Z,12336
2019-03-09T12:51:38.576Z,12336
2019-03-09T12:52:48.497Z,12300
2019-03-09T12:53:58.577Z,12312
2019-03-09T12:55:08.251Z,12424
2019-03-09T12:56:18.176Z,12688
2019-03-09T12:57:28.106Z,13024
2019-03-09T12:58:38.060Z,13204
2019-03-09T12:59:48.088Z,13140
2019-03-09T13:00:58.014Z,12684
2019-03-09T13:02:07.938Z,11956
2019-03-09T13:03:17.859Z,11312
2019-03-09T13:04:27.807Z,10688
2019-03-09T13:05:37.727Z,9936
2019-03-09T13:06:47.436Z,9320
2019-03-09T13:07:57.356Z,8956
2019-03-09T13:09:07.282Z,8816
2019-03-09T13:10:17.214Z,8876
2019-03-09T13:11:27.252Z,9116
2019-03-09T13:12:37.182Z,9520
2019-03-09T13:13:47.123Z,9948
2019-03-09T13:14:57.038Z,10300
2019-03-09T13:16:06.707Z,10528
2019-03-09T13:17:16.412Z,10668
2019-03-09T13:18:26.331Z,10752
2019-03-09T13:19:36.262Z,10836
2019-03-09T13:20:46.182Z,10880
2019-03-09T13:21:56.112Z,10848
2019-03-09T13:23:06.033Z,10700
2019-03-09T13:24:15.958Z,10528
2019-03-09T13:25:25.884Z,10416
2019-03-09T13:26:35.816Z,10332
2019-03-09T13:27:45.735Z,10340
2019-03-09T13:28:55.660Z,10336
2019-03-09T13:30:05.598Z,10340
2019-03-09T13:31:15.523Z,10264
2019-03-09T13:32:25.445Z,10200
2019-03-09T13:33:35.367Z,10176
2019-03-09T13:34:45.318Z,10116
2019-03-09T13:35:55.247Z,9984
2019-03-09T13:37:05.238Z,9808
2019-03-09T13:38:15.184Z,9576
2019-03-09T13:39:25.105Z,9360
2019-03-09T13:40:35.027Z,9216
2019-03-09T13:41:44.958Z,9096
2019-03-09T13:42:54.875Z,9000
2019-03-09T13:44:04.809Z,8892
2019-03-09T13:45:14.725Z,8784
2019-03-09T13:46:24.741Z,8604
2019-03-09T13:47:34.416Z,8472
2019-03-09T13:48:44.085Z,8432
2019-03-09T13:49:53.753Z,8464
2019-03-09T13:51:03.671Z,8604
2019-03-09T13:52:13.690Z,8808
2019-03-09T13:53:23.615Z,8996
2019-03-09T13:54:33.540Z,9152
2019-03-09T13:55:43.465Z,9296
2019-03-09T13:56:53.444Z,9448
2019-03-09T13:58:03.391Z,9528
2019-03-09T13:59:13.318Z,9520
2019-03-09T14:00:23.242Z,9528
2019-03-09T14:01:33.163Z,9628
2019-03-09T14:02:43.127Z,9800
2019-03-09T14:03:53.116Z,9924
2019-03-09T14:05:03.087Z,9960
2019-03-09T14:06:13.002Z,9904
2019-03-09T14:07:22.926Z,9752
2019-03-09T14:08:32.846Z,9564
2019-03-09T14:09:42.875Z,9384
2019-03-09T14:10:52.792Z,9240
2019-03-09T14:12:02.707Z,9128
2019-03-09T14:13:12.626Z,9072
2019-03-09T14:14:22.545Z,8984
2019-03-09T14:15:32.520Z,8840
2019-03-09T14:16:42.440Z,8764
2019-03-09T14:17:52.386Z,8752
2019-03-09T14:19:02.310Z,8712
2019-03-09T14:20:12.241Z,8640
2019-03-09T14:21:22.167Z,8532
2019-03-09T14:22:32.089Z,8360
2019-03-09T14:23:41.759Z,8132
2019-03-09T14:24:51.678Z,7984
2019-03-09T14:26:01.601Z,7924
2019-03-09T14:27:11.632Z,7880
2019-03-09T14:28:22.903Z,7860
2019-03-09T14:29:32.821Z,7832
2019-03-09T14:30:42.748Z,7804
2019-03-09T14:31:52.717Z,7756
2019-03-09T14:33:02.631Z,7724
2019-03-09T14:34:12.551Z,7716
2019-03-09T14:35:22.500Z,7796
2019-03-09T14:36:32.418Z,7912
2019-03-09T14:37:42.340Z,8020
2019-03-09T14:38:52.370Z,8168
2019-03-09T14:40:02.299Z,8364
2019-03-09T14:41:12.231Z,8556
2019-03-09T14:42:22.150Z,8688
2019-03-09T14:43:32.073Z,8752
2019-03-09T14:44:42.093Z,8876
2019-03-09T14:45:52.008Z,9104
2019-03-09T14:47:01.927Z,9336
2019-03-09T14:48:11.857Z,9588
2019-03-09T14:49:21.780Z,9840
2019-03-09T14:50:31.800Z,10040
2019-03-09T14:51:41.719Z,10200
2019-03-09T14:52:51.388Z,10204
2019-03-09T14:54:01.312Z,10040
2019-03-09T14:55:11.234Z,9832
2019-03-09T14:56:21.320Z,9564
2019-03-09T14:57:31.241Z,9240
2019-03-09T14:58:41.159Z,8912
2019-03-09T14:59:53.434Z,8692
2019-03-09T15:01:03.354Z,8464
2019-03-09T15:02:13.372Z,8120
2019-03-09T15:03:23.293Z,7792
2019-03-09T15:04:33.210Z,7584
2019-03-09T15:05:42.876Z,7580
2019-03-09T15:06:52.790Z,7544
2019-03-09T15:08:02.818Z,7552
2019-03-09T15:09:12.733Z,7556
2019-03-09T15:10:22.652Z,7340
2019-03-09T15:11:32.569Z,7168
2019-03-09T15:12:42.503Z,7004
2019-03-09T15:13:55.835Z,6816
2019-03-09T15:15:05.921Z,6736
2019-03-09T15:16:15.857Z,6632
2019-03-09T15:17:25.778Z,6516
2019-03-09T15:18:35.695Z,6424
2019-03-09T15:19:45.622Z,6368
2019-03-09T15:20:55.547Z,6284
2019-03-09T15:22:05.490Z,6108
2019-03-09T15:23:15.409Z,5968
2019-03-09T15:24:25.324Z,5884
2019-03-09T15:25:36.466Z,5848
2019-03-09T15:26:46.386Z,5824
2019-03-09T15:27:56.340Z,5900
2019-03-09T15:29:06.259Z,5984
2019-03-09T15:30:16.183Z,6088
2019-03-09T15:31:25.952Z,6168
2019-03-09T15:32:35.869Z,6156
2019-03-09T15:33:45.820Z,6008
2019-03-09T15:34:55.745Z,5900
2019-03-09T15:36:05.683Z,5920
2019-03-09T15:37:15.444Z,5888
2019-03-09T15:38:25.366Z,5804
2019-03-09T15:39:35.281Z,5804
2019-03-09T15:40:45.299Z,5784
2019-03-09T15:41:55.223Z,5624
2019-03-09T15:43:05.299Z,5360
2019-03-09T15:44:14.992Z,5152
2019-03-09T15:45:24.906Z,5032
2019-03-09T15:46:34.676Z,4992
2019-03-09T15:47:44.683Z,4980
2019-03-09T15:48:54.606Z,4908
2019-03-09T15:50:04.524Z,4884
2019-03-09T15:51:14.527Z,4852
2019-03-09T15:52:24.469Z,4676
2019-03-09T15:53:34.674Z,4524
2019-03-09T15:54:44.672Z,4368
2019-03-09T15:55:54.339Z,4304
2019-03-09T15:57:04.001Z,4216
2019-03-09T15:58:13.933Z,4112
2019-03-09T15:59:23.852Z,3932
2019-03-09T16:00:33.770Z,3768
2019-03-09T16:01:43.700Z,3660